createdAt,value
2022-12-03T00:00:23.105Z,30.43
2022-12-03T00:03:48.246Z,30.33
2022-12-03T00:06:51.574Z,30.33
2022-12-03T00:09:55.250Z,30.32
2022-12-03T00:12:58.527Z,30.31
2022-12-03T00:16:02.488Z,30.27
2022-12-03T00:19:07.709Z,30.25
2022-12-03T00:22:12.829Z,30.25
2022-12-03T00:25:17.049Z,30.22
2022-12-03T00:28:21.062Z,30.23
2022-12-03T00:31:24.959Z,30.24
2022-12-03T00:34:30.107Z,30.24
2022-12-03T00:37:35.094Z,30.24
2022-12-03T00:40:38.739Z,30.21
2022-12-03T00:43:42.016Z,30.17
2022-12-03T00:46:45.580Z,30.14
2022-12-03T00:49:50.260Z,30.11
2022-12-03T00:52:53.708Z,30.08
2022-12-03T00:55:56.959Z,29.98
2022-12-03T00:59:00.480Z,30.03
2022-12-03T01:02:04.043Z,30.11
2022-12-03T01:05:10.814Z,30.21
2022-12-03T01:08:14.267Z,30.25
2022-12-03T01:11:35.434Z,30.30
2022-12-03T01:14:38.874Z,30.33
2022-12-03T01:17:42.620Z,30.34
2022-12-03T01:20:47.379Z,30.33
2022-12-03T01:23:51.088Z,30.31
2022-12-03T01:26:55.767Z,30.28
2022-12-03T01:29:59.267Z,30.28
2022-12-03T01:33:01.467Z,30.26
2022-12-03T01:36:07.295Z,30.27
2022-12-03T01:39:10.662Z,30.27
2022-12-03T01:42:20.769Z,30.26
2022-12-03T01:45:25.445Z,30.25
2022-12-03T01:48:32.867Z,30.24
2022-12-03T01:51:37.647Z,30.27
2022-12-03T01:54:46.287Z,30.27
2022-12-03T01:57:54.130Z,30.27
2022-12-03T02:01:02.640Z,30.24
2022-12-03T02:04:06.372Z,30.21
2022-12-03T02:07:28.391Z,30.17
2022-12-03T02:10:37.231Z,30.14
2022-12-03T02:13:41.812Z,30.09
2022-12-03T02:16:45.921Z,30.11
2022-12-03T02:19:50.802Z,30.12
2022-12-03T02:23:07.262Z,30.12
2022-12-03T02:26:12.481Z,30.15
2022-12-03T02:29:15.852Z,30.13
2022-12-03T02:32:23.343Z,30.14
2022-12-03T02:35:29.783Z,30.16
2022-12-03T02:38:36.147Z,30.14
2022-12-03T02:41:58.175Z,30.13
2022-12-03T02:45:06.415Z,30.11
2022-12-03T02:48:15.054Z,30.13
2022-12-03T02:51:19.777Z,30.13
2022-12-03T02:54:23.547Z,30.17
2022-12-03T02:57:28.693Z,30.18
2022-12-03T03:00:32.437Z,30.20
2022-12-03T03:03:39.030Z,30.21
2022-12-03T03:06:42.486Z,30.22
2022-12-03T03:09:46.419Z,30.24
2022-12-03T03:12:53.780Z,30.25
2022-12-03T03:15:58.441Z,30.25
2022-12-03T03:19:02.251Z,30.25
2022-12-03T03:22:06.525Z,30.26
2022-12-03T03:25:14.067Z,30.24
2022-12-03T03:28:20.349Z,30.15
2022-12-03T03:31:25.455Z,30.17
2022-12-03T03:34:30.301Z,30.14
2022-12-03T03:37:34.243Z,30.15
2022-12-03T03:40:39.170Z,30.15
2022-12-03T03:43:46.912Z,30.15
2022-12-03T03:46:50.678Z,30.13
2022-12-03T03:49:54.806Z,30.10
2022-12-03T03:53:01.014Z,30.09
2022-12-03T03:56:04.844Z,30.13
2022-12-03T03:59:10.371Z,30.14
2022-12-03T04:02:20.830Z,30.11
2022-12-03T04:05:26.475Z,30.08
2022-12-03T04:08:29.821Z,30.04
2022-12-03T04:11:53.300Z,30.04
2022-12-03T04:14:58.303Z,30.06
2022-12-03T04:18:16.379Z,30.06
2022-12-03T04:21:40.529Z,30.05
2022-12-03T04:24:44.367Z,30.04
2022-12-03T04:28:05.326Z,30.08
2022-12-03T04:31:24.860Z,30.08
2022-12-03T04:34:45.906Z,30.04
2022-12-03T04:37:49.465Z,30.02
2022-12-03T04:41:07.708Z,30.01
2022-12-03T04:44:29.471Z,30.05
2022-12-03T04:47:39.646Z,30.03
2022-12-03T04:50:43.954Z,30.01
2022-12-03T04:53:47.333Z,30.02
2022-12-03T04:56:51.156Z,30.01
2022-12-03T04:59:54.435Z,30.04
2022-12-03T05:02:59.640Z,30.04
2022-12-03T05:06:03.820Z,30.02
2022-12-03T05:09:07.556Z,30.03
2022-12-03T05:12:10.753Z,29.99
2022-12-03T05:15:14.353Z,29.96
2022-12-03T05:18:19.186Z,29.98
2022-12-03T05:21:23.029Z,29.99
2022-12-03T05:24:26.254Z,29.96
2022-12-03T05:27:30.453Z,29.97
2022-12-03T05:30:34.026Z,29.94
2022-12-03T05:33:43.952Z,29.92
2022-12-03T05:36:47.735Z,29.92
2022-12-03T05:39:51.613Z,29.93
2022-12-03T05:42:54.870Z,29.90
2022-12-03T05:45:58.584Z,29.91
2022-12-03T05:49:03.190Z,29.93
2022-12-03T05:52:07.691Z,29.94
2022-12-03T05:55:12.175Z,29.94
2022-12-03T05:58:16.045Z,29.96
2022-12-03T06:01:19.261Z,29.97
2022-12-03T06:04:24.311Z,29.98
2022-12-03T06:07:27.796Z,30.00
2022-12-03T06:10:32.477Z,29.99
2022-12-03T06:13:35.734Z,29.95
2022-12-03T06:16:39.580Z,29.94
2022-12-03T06:19:44.431Z,29.93
2022-12-03T06:22:49.504Z,29.91
2022-12-03T06:25:52.990Z,29.62
2022-12-03T06:28:56.795Z,29.13
2022-12-03T06:32:00.098Z,28.83
2022-12-03T06:35:06.016Z,28.74
2022-12-03T06:38:09.303Z,28.71
2022-12-03T06:41:12.804Z,28.71
2022-12-03T06:44:16.484Z,28.79
2022-12-03T06:47:20.454Z,28.85
2022-12-03T06:50:25.245Z,28.94
2022-12-03T06:53:28.984Z,29.00
2022-12-03T06:56:37.848Z,29.05
2022-12-03T06:59:45.574Z,29.13
2022-12-03T07:02:48.901Z,29.18
2022-12-03T07:05:54.215Z,29.22
2022-12-03T07:08:57.596Z,29.28
2022-12-03T07:12:01.246Z,29.34
2022-12-03T07:15:05.038Z,29.34
2022-12-03T07:18:08.952Z,29.34
2022-12-03T07:21:13.789Z,29.38
2022-12-03T07:24:17.509Z,29.42
2022-12-03T07:27:20.663Z,29.44
2022-12-03T07:30:25.738Z,29.54
2022-12-03T07:33:29.067Z,29.57
2022-12-03T07:36:35.309Z,29.62
2022-12-03T07:39:38.856Z,29.68
2022-12-03T07:42:42.405Z,29.73
2022-12-03T07:45:45.831Z,29.80
2022-12-03T07:48:49.434Z,29.81
2022-12-03T07:51:54.693Z,29.79
2022-12-03T07:54:58.696Z,29.78
2022-12-03T07:58:02.064Z,29.75
2022-12-03T08:01:06.068Z,29.73
2022-12-03T08:04:09.760Z,29.71
2022-12-03T08:07:15.623Z,29.71
2022-12-03T08:10:19.588Z,29.70
2022-12-03T08:13:23.126Z,29.69
2022-12-03T08:16:27.959Z,29.69
2022-12-03T08:19:31.549Z,29.70
2022-12-03T08:22:36.046Z,29.73
2022-12-03T08:25:40.398Z,29.74
2022-12-03T08:28:44.059Z,29.76
2022-12-03T08:31:52.128Z,29.81
2022-12-03T08:34:55.659Z,29.86
2022-12-03T08:38:06.839Z,29.91
2022-12-03T08:41:15.496Z,29.96
2022-12-03T08:44:28.407Z,30.01
2022-12-03T08:47:31.641Z,29.99
2022-12-03T08:50:41.804Z,30.02
2022-12-03T08:53:50.523Z,30.06
2022-12-03T08:56:55.437Z,30.12
2022-12-03T09:00:05.078Z,30.15
2022-12-03T09:03:16.914Z,30.19
2022-12-03T09:06:20.378Z,30.26
2022-12-03T09:09:26.037Z,30.27
2022-12-03T09:12:29.244Z,30.28
2022-12-03T09:15:33.260Z,30.23
2022-12-03T09:18:36.563Z,30.15
2022-12-03T09:21:40.392Z,30.16
2022-12-03T09:24:45.490Z,30.32
2022-12-03T09:27:49.795Z,30.56
2022-12-03T09:30:53.022Z,30.63
2022-12-03T09:33:56.512Z,30.69
2022-12-03T09:36:59.636Z,30.79
2022-12-03T09:40:05.780Z,30.90
2022-12-03T09:43:10.433Z,30.99
2022-12-03T09:46:14.544Z,31.00
2022-12-03T09:49:20.563Z,30.93
2022-12-03T09:52:28.486Z,30.80
2022-12-03T09:55:33.206Z,30.94
2022-12-03T09:58:37.212Z,31.20
2022-12-03T10:01:40.795Z,31.10
2022-12-03T10:04:44.704Z,30.81
2022-12-03T10:07:49.397Z,30.58
2022-12-03T10:10:57.523Z,30.66
2022-12-03T10:14:01.061Z,30.81
2022-12-03T10:17:05.618Z,30.89
2022-12-03T10:20:15.158Z,30.78
2022-12-03T10:23:24.397Z,30.58
2022-12-03T10:26:41.259Z,30.41
2022-12-03T10:29:57.111Z,30.40
2022-12-03T10:33:15.689Z,30.49
2022-12-03T10:36:25.214Z,30.49
2022-12-03T10:39:28.613Z,30.53
2022-12-03T10:42:36.883Z,30.52
2022-12-03T10:45:40.596Z,30.38
2022-12-03T10:48:44.375Z,30.23
2022-12-03T10:51:49.785Z,30.16
2022-12-03T10:54:53.830Z,30.04
2022-12-03T10:57:59.143Z,29.96
2022-12-03T11:01:08.068Z,29.99
2022-12-03T11:04:23.816Z,29.93
2022-12-03T11:07:27.597Z,29.88
2022-12-03T11:10:30.941Z,29.83
2022-12-03T11:13:53.284Z,29.79
2022-12-03T11:17:11.650Z,29.74
2022-12-03T11:21:06.453Z,29.72
2022-12-03T11:24:27.438Z,29.70
2022-12-03T11:27:31.551Z,29.71
2022-12-03T11:31:02.517Z,29.65
2022-12-03T11:34:42.545Z,29.62
2022-12-03T11:37:46.020Z,29.66
2022-12-03T11:41:12.078Z,29.64
2022-12-03T11:44:33.743Z,29.59
2022-12-03T11:47:42.739Z,29.57
2022-12-03T11:50:52.555Z,29.57
2022-12-03T11:54:00.831Z,29.57
2022-12-03T11:57:04.600Z,29.52
2022-12-03T12:00:23.871Z,29.47
2022-12-03T12:03:33.480Z,29.40
2022-12-03T12:06:43.723Z,29.39
2022-12-03T12:09:53.475Z,29.38
2022-12-03T12:12:57.367Z,29.36
2022-12-03T12:16:01.443Z,29.35
2022-12-03T12:19:41.381Z,29.31
2022-12-03T12:22:44.689Z,29.30
2022-12-03T12:25:53.770Z,29.36
2022-12-03T12:28:57.615Z,29.39
2022-12-03T12:32:12.721Z,29.39
2022-12-03T12:35:21.614Z,29.42
2022-12-03T12:38:25.277Z,29.44
2022-12-03T12:41:29.659Z,29.43
2022-12-03T12:44:33.244Z,29.40
2022-12-03T12:47:37.618Z,29.40
2022-12-03T12:50:44.548Z,29.40
2022-12-03T12:53:48.684Z,29.39
2022-12-03T12:56:53.312Z,29.41
2022-12-03T12:59:56.725Z,29.38
2022-12-03T13:03:04.846Z,29.35
2022-12-03T13:06:17.060Z,29.31
2022-12-03T13:09:24.722Z,29.28
2022-12-03T13:12:28.105Z,29.21
2022-12-03T13:15:43.677Z,29.18
2022-12-03T13:18:50.701Z,29.17
2022-12-03T13:21:58.695Z,29.16
2022-12-03T13:25:58.296Z,29.14
2022-12-03T13:28:58.689Z,29.16
2022-12-03T13:32:12.925Z,29.18
2022-12-03T13:35:31.433Z,29.16
2022-12-03T13:38:36.264Z,29.16
2022-12-03T13:41:57.278Z,29.17
2022-12-03T13:45:03.786Z,29.22
2022-12-03T13:48:23.071Z,29.25
2022-12-03T13:51:30.845Z,29.24
2022-12-03T13:54:39.215Z,29.24
2022-12-03T13:57:42.607Z,29.25
2022-12-03T14:00:46.281Z,29.24
2022-12-03T14:03:51.751Z,29.25
2022-12-03T14:06:55.811Z,29.38
2022-12-03T14:10:00.706Z,29.62
2022-12-03T14:13:04.201Z,29.82
2022-12-03T14:16:08.025Z,29.99
2022-12-03T14:19:11.551Z,30.12
2022-12-03T14:22:14.750Z,30.30
2022-12-03T14:25:19.599Z,30.40
2022-12-03T14:28:22.844Z,30.49
2022-12-03T14:31:26.485Z,30.59
2022-12-03T14:34:30.304Z,30.80
2022-12-03T14:37:34.149Z,31.31
2022-12-03T14:40:38.909Z,31.67
2022-12-03T14:43:42.623Z,31.70
2022-12-03T14:46:46.232Z,31.39
2022-12-03T14:49:51.084Z,31.03
2022-12-03T14:52:54.551Z,30.75
2022-12-03T14:55:59.729Z,30.55
2022-12-03T14:59:03.290Z,30.39
2022-12-03T15:02:07.276Z,30.31
2022-12-03T15:05:11.543Z,30.20
2022-12-03T15:08:15.162Z,30.13
2022-12-03T15:11:20.207Z,30.05
2022-12-03T15:14:23.956Z,29.98
2022-12-03T15:17:31.741Z,29.93
2022-12-03T15:20:37.909Z,29.86
2022-12-03T15:23:41.735Z,29.83
2022-12-03T15:26:46.922Z,29.84
2022-12-03T15:29:51.041Z,29.81
2022-12-03T15:32:55.109Z,29.81
2022-12-03T15:35:58.659Z,29.77
2022-12-03T15:39:02.504Z,29.74
2022-12-03T15:42:09.039Z,29.74
2022-12-03T15:45:15.339Z,29.72
2022-12-03T15:48:19.182Z,29.69
2022-12-03T15:51:22.968Z,29.68
2022-12-03T15:54:26.404Z,29.67
2022-12-03T15:57:31.638Z,29.68
2022-12-03T16:00:35.120Z,29.67
2022-12-03T16:03:38.880Z,29.63
2022-12-03T16:06:42.277Z,29.62
2022-12-03T16:09:46.694Z,29.63
2022-12-03T16:12:51.574Z,29.61
2022-12-03T16:15:55.325Z,29.62
2022-12-03T16:18:58.837Z,29.67
2022-12-03T16:22:02.638Z,29.68
2022-12-03T16:25:07.191Z,29.70
2022-12-03T16:28:12.235Z,29.72
2022-12-03T16:31:16.035Z,29.74
2022-12-03T16:34:19.856Z,29.75
2022-12-03T16:37:24.050Z,29.75
2022-12-03T16:40:27.635Z,29.76
2022-12-03T16:43:38.472Z,29.74
2022-12-03T16:46:42.185Z,29.75
2022-12-03T16:49:45.412Z,29.75
2022-12-03T16:52:49.145Z,29.73
2022-12-03T16:55:52.371Z,29.74
2022-12-03T16:58:57.497Z,29.80
2022-12-03T17:02:01.160Z,29.84
2022-12-03T17:05:05.598Z,29.88
2022-12-03T17:08:09.182Z,29.90
2022-12-03T17:11:12.782Z,29.90
2022-12-03T17:14:17.672Z,29.92
2022-12-03T17:17:21.410Z,29.92
2022-12-03T17:20:25.210Z,29.89
2022-12-03T17:23:28.764Z,29.87
2022-12-03T17:26:32.421Z,29.85
2022-12-03T17:29:37.444Z,29.81
2022-12-03T17:32:41.280Z,29.79
2022-12-03T17:35:45.990Z,29.79
2022-12-03T17:38:49.441Z,29.77
2022-12-03T17:41:53.052Z,29.82
2022-12-03T17:44:57.902Z,29.82
2022-12-03T17:48:01.826Z,29.78
2022-12-03T17:51:05.677Z,29.80
2022-12-03T17:54:09.458Z,29.82
2022-12-03T17:57:12.928Z,29.88
2022-12-03T18:00:18.865Z,29.93
2022-12-03T18:03:22.626Z,29.96
2022-12-03T18:06:26.414Z,29.97
2022-12-03T18:09:30.028Z,29.97
2022-12-03T18:12:33.790Z,29.96
2022-12-03T18:15:38.915Z,29.98
2022-12-03T18:18:42.954Z,30.01
2022-12-03T18:21:46.582Z,30.02
2022-12-03T18:24:52.007Z,30.05
2022-12-03T18:27:55.703Z,30.09
2022-12-03T18:31:01.497Z,30.12
2022-12-03T18:34:05.317Z,30.12
2022-12-03T18:37:13.133Z,30.11
2022-12-03T18:40:23.596Z,30.10
2022-12-03T18:43:28.997Z,30.08
2022-12-03T18:46:52.976Z,30.03
2022-12-03T18:49:57.949Z,29.99
2022-12-03T18:53:01.680Z,29.99
2022-12-03T18:56:05.983Z,30.02
2022-12-03T18:59:11.164Z,30.01
2022-12-03T19:02:53.704Z,30.00
2022-12-03T19:05:43.151Z,29.99
2022-12-03T19:08:48.427Z,30.00
2022-12-03T19:11:52.072Z,30.02
2022-12-03T19:14:55.902Z,30.05
2022-12-03T19:18:00.739Z,30.15
2022-12-03T19:21:15.095Z,30.18
2022-12-03T19:24:24.815Z,30.19
2022-12-03T19:27:31.405Z,30.30
2022-12-03T19:30:35.092Z,30.40
2022-12-03T19:33:40.522Z,30.44
2022-12-03T19:36:43.876Z,30.39
2022-12-03T19:39:47.881Z,30.36
2022-12-03T19:42:51.587Z,30.38
2022-12-03T19:45:56.340Z,30.38
2022-12-03T19:49:04.818Z,30.38
2022-12-03T19:52:08.394Z,30.34
2022-12-03T19:55:13.290Z,30.32
2022-12-03T19:58:16.828Z,30.29
2022-12-03T20:01:25.597Z,30.27
2022-12-03T20:04:30.500Z,30.24
2022-12-03T20:07:33.777Z,30.24
2022-12-03T20:10:37.726Z,30.25
2022-12-03T20:13:41.921Z,30.28
2022-12-03T20:16:46.142Z,30.25
2022-12-03T20:19:51.434Z,30.24
2022-12-03T20:22:55.047Z,30.22
2022-12-03T20:25:58.701Z,30.22
2022-12-03T20:29:02.435Z,30.22
2022-12-03T20:32:06.925Z,30.21
2022-12-03T20:35:12.388Z,30.21
2022-12-03T20:38:15.762Z,30.17
2022-12-03T20:41:20.135Z,30.16
2022-12-03T20:44:23.788Z,30.13
2022-12-03T20:47:27.473Z,30.13
2022-12-03T20:50:32.444Z,30.11
2022-12-03T20:53:44.746Z,30.20
2022-12-03T20:56:51.211Z,30.32
2022-12-03T20:59:56.070Z,30.32
2022-12-03T21:02:59.978Z,30.57
2022-12-03T21:06:05.634Z,30.83
2022-12-03T21:09:10.878Z,30.91
2022-12-03T21:12:14.404Z,30.97
2022-12-03T21:15:18.109Z,30.93
2022-12-03T21:18:21.690Z,30.87
2022-12-03T21:21:27.093Z,30.93
2022-12-03T21:24:31.049Z,31.04
2022-12-03T21:27:34.675Z,31.10
2022-12-03T21:30:40.240Z,31.22
2022-12-03T21:33:43.948Z,31.53
2022-12-03T21:36:48.976Z,31.65
2022-12-03T21:39:52.712Z,31.63
2022-12-03T21:42:56.340Z,31.58
2022-12-03T21:45:59.706Z,31.53
2022-12-03T21:49:03.295Z,31.51
2022-12-03T21:52:08.083Z,31.47
2022-12-03T21:55:11.746Z,31.51
2022-12-03T21:58:15.398Z,31.52
2022-12-03T22:01:22.056Z,31.47
2022-12-03T22:04:25.628Z,31.49
2022-12-03T22:07:33.346Z,31.50
2022-12-03T22:10:37.842Z,31.52
2022-12-03T22:13:42.895Z,31.51
2022-12-03T22:16:46.233Z,31.53
2022-12-03T22:19:50.109Z,31.53
2022-12-03T22:22:55.220Z,31.55
2022-12-03T22:26:00.977Z,31.57
2022-12-03T22:29:04.828Z,31.61
2022-12-03T22:32:08.362Z,31.63
2022-12-03T22:35:12.080Z,31.61
2022-12-03T22:38:16.975Z,31.56
2022-12-03T22:41:20.993Z,31.51
2022-12-03T22:44:24.454Z,31.46
2022-12-03T22:47:27.667Z,31.40
2022-12-03T22:50:31.230Z,31.35
2022-12-03T22:53:35.846Z,31.33
2022-12-03T22:56:39.583Z,31.31
2022-12-03T22:59:42.935Z,31.29
2022-12-03T23:02:46.560Z,31.26
2022-12-03T23:05:50.734Z,31.24
2022-12-03T23:08:56.751Z,31.17
2022-12-03T23:11:59.997Z,31.11
2022-12-03T23:15:03.803Z,31.11
2022-12-03T23:18:07.152Z,31.12
2022-12-03T23:21:10.705Z,31.12
2022-12-03T23:24:15.492Z,31.14
2022-12-03T23:27:19.095Z,31.15
2022-12-03T23:30:22.747Z,31.15
2022-12-03T23:33:27.414Z,31.11
2022-12-03T23:36:34.065Z,31.10
2022-12-03T23:39:39.302Z,31.08
2022-12-03T23:42:42.552Z,31.09
2022-12-03T23:45:45.998Z,31.09
2022-12-03T23:48:49.686Z,31.11
2022-12-03T23:51:53.314Z,31.13
2022-12-03T23:54:58.266Z,31.11
2022-12-03T23:58:02.128Z,31.10
